sensor_id;sensor_type;location;lat;lon;timestamp;P1;durP1;ratioP1;P2;durP2;ratioP2
19006;SDS011;9636;47.382;8.480;2023-04-20T00:02:15;2.63;;;2.40;;
19006;SDS011;9636;47.382;8.480;2023-04-20T00:04:43;2.67;;;2.47;;
19006;SDS011;9636;47.382;8.480;2023-04-20T00:07:10;2.77;;;2.53;;
19006;SDS011;9636;47.382;8.480;2023-04-20T00:09:37;3.13;;;2.80;;
19006;SDS011;9636;47.382;8.480;2023-04-20T00:12:04;2.90;;;2.70;;
19006;SDS011;9636;47.382;8.480;2023-04-20T00:14:31;2.70;;;2.50;;
19006;SDS011;9636;47.382;8.480;2023-04-20T00:16:58;2.83;;;2.63;;
19006;SDS011;9636;47.382;8.480;2023-04-20T00:19:25;2.90;;;2.70;;
19006;SDS011;9636;47.382;8.480;2023-04-20T00:21:53;2.70;;;2.50;;
19006;SDS011;9636;47.382;8.480;2023-04-20T00:24:20;2.80;;;2.60;;
19006;SDS011;9636;47.382;8.480;2023-04-20T00:26:47;2.63;;;2.43;;
19006;SDS011;9636;47.382;8.480;2023-04-20T00:29:14;2.80;;;2.60;;
19006;SDS011;9636;47.382;8.480;2023-04-20T00:31:41;2.83;;;2.63;;
19006;SDS011;9636;47.382;8.480;2023-04-20T00:34:07;2.60;;;2.40;;
19006;SDS011;9636;47.382;8.480;2023-04-20T00:36:34;2.50;;;2.30;;
19006;SDS011;9636;47.382;8.480;2023-04-20T00:39:02;2.70;;;2.50;;
19006;SDS011;9636;47.382;8.480;2023-04-20T00:41:29;2.97;;;2.70;;
19006;SDS011;9636;47.382;8.480;2023-04-20T00:43:56;2.17;;;2.00;;
19006;SDS011;9636;47.382;8.480;2023-04-20T00:46:23;2.63;;;2.43;;
19006;SDS011;9636;47.382;8.480;2023-04-20T00:48:50;2.60;;;2.40;;
19006;SDS011;9636;47.382;8.480;2023-04-20T00:51:18;2.60;;;2.40;;
19006;SDS011;9636;47.382;8.480;2023-04-20T00:53:47;2.97;;;2.70;;
19006;SDS011;9636;47.382;8.480;2023-04-20T00:56:15;2.60;;;2.40;;
19006;SDS011;9636;47.382;8.480;2023-04-20T00:58:43;2.70;;;2.50;;
19006;SDS011;9636;47.382;8.480;2023-04-20T01:01:11;2.80;;;2.30;;
19006;SDS011;9636;47.382;8.480;2023-04-20T01:03:41;2.33;;;2.13;;
19006;SDS011;9636;47.382;8.480;2023-04-20T01:06:08;2.93;;;2.63;;
19006;SDS011;9636;47.382;8.480;2023-04-20T01:08:43;2.60;;;2.40;;
19006;SDS011;9636;47.382;8.480;2023-04-20T01:11:11;2.70;;;2.50;;
19006;SDS011;9636;47.382;8.480;2023-04-20T01:13:39;2.60;;;2.40;;
19006;SDS011;9636;47.382;8.480;2023-04-20T01:16:06;2.70;;;2.50;;
19006;SDS011;9636;47.382;8.480;2023-04-20T01:18:40;2.77;;;2.57;;
19006;SDS011;9636;47.382;8.480;2023-04-20T01:21:08;2.63;;;2.43;;
19006;SDS011;9636;47.382;8.480;2023-04-20T01:23:36;2.67;;;2.47;;
19006;SDS011;9636;47.382;8.480;2023-04-20T01:26:04;2.60;;;2.40;;
19006;SDS011;9636;47.382;8.480;2023-04-20T01:28:32;2.53;;;2.33;;
19006;SDS011;9636;47.382;8.480;2023-04-20T01:30:58;2.60;;;2.40;;
19006;SDS011;9636;47.382;8.480;2023-04-20T01:33:25;2.60;;;2.40;;
19006;SDS011;9636;47.382;8.480;2023-04-20T01:35:52;2.70;;;2.50;;
19006;SDS011;9636;47.382;8.480;2023-04-20T01:38:20;2.30;;;2.10;;
19006;SDS011;9636;47.382;8.480;2023-04-20T01:40:49;2.53;;;2.33;;
19006;SDS011;9636;47.382;8.480;2023-04-20T01:43:17;2.67;;;2.47;;
19006;SDS011;9636;47.382;8.480;2023-04-20T01:45:44;2.73;;;2.53;;
19006;SDS011;9636;47.382;8.480;2023-04-20T01:48:11;2.80;;;2.60;;
19006;SDS011;9636;47.382;8.480;2023-04-20T01:50:38;2.70;;;2.50;;
19006;SDS011;9636;47.382;8.480;2023-04-20T01:53:04;2.53;;;2.33;;
19006;SDS011;9636;47.382;8.480;2023-04-20T01:55:32;2.90;;;2.60;;
19006;SDS011;9636;47.382;8.480;2023-04-20T01:58:00;2.73;;;2.53;;
19006;SDS011;9636;47.382;8.480;2023-04-20T02:00:28;2.60;;;2.40;;
19006;SDS011;9636;47.382;8.480;2023-04-20T02:02:54;2.40;;;2.20;;
19006;SDS011;9636;47.382;8.480;2023-04-20T02:05:21;3.60;;;2.60;;
19006;SDS011;9636;47.382;8.480;2023-04-20T02:07:48;2.50;;;2.30;;
19006;SDS011;9636;47.382;8.480;2023-04-20T02:10:15;2.67;;;2.47;;
19006;SDS011;9636;47.382;8.480;2023-04-20T02:12:42;2.40;;;2.20;;
19006;SDS011;9636;47.382;8.480;2023-04-20T02:15:10;2.33;;;2.13;;
19006;SDS011;9636;47.382;8.480;2023-04-20T02:17:37;2.43;;;2.13;;
19006;SDS011;9636;47.382;8.480;2023-04-20T02:20:05;2.40;;;2.20;;
19006;SDS011;9636;47.382;8.480;2023-04-20T02:22:34;2.60;;;2.40;;
19006;SDS011;9636;47.382;8.480;2023-04-20T02:25:01;2.60;;;2.40;;
19006;SDS011;9636;47.382;8.480;2023-04-20T02:27:28;2.37;;;2.17;;
19006;SDS011;9636;47.382;8.480;2023-04-20T02:29:56;2.60;;;2.40;;
19006;SDS011;9636;47.382;8.480;2023-04-20T02:32:24;2.60;;;2.40;;
19006;SDS011;9636;47.382;8.480;2023-04-20T02:34:51;2.27;;;2.07;;
19006;SDS011;9636;47.382;8.480;2023-04-20T02:37:18;2.63;;;2.43;;
19006;SDS011;9636;47.382;8.480;2023-04-20T02:39:45;2.80;;;2.50;;
19006;SDS011;9636;47.382;8.480;2023-04-20T02:42:11;2.60;;;2.40;;
19006;SDS011;9636;47.382;8.480;2023-04-20T02:44:38;2.73;;;2.40;;
19006;SDS011;9636;47.382;8.480;2023-04-20T02:47:05;2.63;;;2.43;;
19006;SDS011;9636;47.382;8.480;2023-04-20T02:49:33;2.53;;;2.33;;
19006;SDS011;9636;47.382;8.480;2023-04-20T02:52:01;2.63;;;2.43;;
19006;SDS011;9636;47.382;8.480;2023-04-20T02:54:27;2.73;;;2.53;;
19006;SDS011;9636;47.382;8.480;2023-04-20T02:56:54;2.77;;;2.57;;
19006;SDS011;9636;47.382;8.480;2023-04-20T02:59:22;2.40;;;2.20;;
19006;SDS011;9636;47.382;8.480;2023-04-20T03:01:49;2.40;;;2.20;;
19006;SDS011;9636;47.382;8.480;2023-04-20T03:04:16;2.43;;;2.23;;
19006;SDS011;9636;47.382;8.480;2023-04-20T03:06:44;2.30;;;2.10;;
19006;SDS011;9636;47.382;8.480;2023-04-20T03:09:11;2.30;;;2.10;;
19006;SDS011;9636;47.382;8.480;2023-04-20T03:11:38;2.50;;;2.30;;
19006;SDS011;9636;47.382;8.480;2023-04-20T03:14:05;2.77;;;2.50;;
19006;SDS011;9636;47.382;8.480;2023-04-20T03:16:33;2.50;;;2.30;;
19006;SDS011;9636;47.382;8.480;2023-04-20T03:19:00;2.20;;;2.00;;
19006;SDS011;9636;47.382;8.480;2023-04-20T03:21:28;2.70;;;2.50;;
19006;SDS011;9636;47.382;8.480;2023-04-20T03:23:56;2.30;;;2.10;;
19006;SDS011;9636;47.382;8.480;2023-04-20T03:26:23;2.40;;;2.20;;
19006;SDS011;9636;47.382;8.480;2023-04-20T03:28:50;2.37;;;2.17;;
19006;SDS011;9636;47.382;8.480;2023-04-20T03:31:17;2.57;;;2.37;;
19006;SDS011;9636;47.382;8.480;2023-04-20T03:33:44;2.30;;;2.10;;
19006;SDS011;9636;47.382;8.480;2023-04-20T03:36:11;2.30;;;2.10;;
19006;SDS011;9636;47.382;8.480;2023-04-20T03:38:38;2.70;;;2.50;;
19006;SDS011;9636;47.382;8.480;2023-04-20T03:41:06;2.67;;;2.47;;
19006;SDS011;9636;47.382;8.480;2023-04-20T03:43:33;2.37;;;2.17;;
19006;SDS011;9636;47.382;8.480;2023-04-20T03:46:00;2.40;;;2.20;;
19006;SDS011;9636;47.382;8.480;2023-04-20T03:48:27;2.70;;;2.50;;
19006;SDS011;9636;47.382;8.480;2023-04-20T03:50:53;2.30;;;2.10;;
19006;SDS011;9636;47.382;8.480;2023-04-20T03:53:20;2.10;;;2.00;;
19006;SDS011;9636;47.382;8.480;2023-04-20T03:55:47;2.40;;;2.20;;
19006;SDS011;9636;47.382;8.480;2023-04-20T03:58:16;2.53;;;2.33;;
19006;SDS011;9636;47.382;8.480;2023-04-20T04:00:43;2.80;;;2.60;;
19006;SDS011;9636;47.382;8.480;2023-04-20T04:03:10;2.40;;;2.20;;
19006;SDS011;9636;47.382;8.480;2023-04-20T04:05:37;2.20;;;2.10;;
19006;SDS011;9636;47.382;8.480;2023-04-20T04:08:04;2.50;;;2.30;;
19006;SDS011;9636;47.382;8.480;2023-04-20T04:10:30;2.50;;;2.30;;
19006;SDS011;9636;47.382;8.480;2023-04-20T04:12:57;2.53;;;2.33;;
19006;SDS011;9636;47.382;8.480;2023-04-20T04:15:26;2.10;;;2.00;;
19006;SDS011;9636;47.382;8.480;2023-04-20T04:17:52;2.50;;;2.30;;
19006;SDS011;9636;47.382;8.480;2023-04-20T04:20:19;2.70;;;2.50;;
19006;SDS011;9636;47.382;8.480;2023-04-20T04:22:46;2.47;;;2.27;;
19006;SDS011;9636;47.382;8.480;2023-04-20T04:25:13;2.40;;;2.20;;
19006;SDS011;9636;47.382;8.480;2023-04-20T04:27:41;2.23;;;2.03;;
19006;SDS011;9636;47.382;8.480;2023-04-20T04:30:11;2.77;;;2.27;;
19006;SDS011;9636;47.382;8.480;2023-04-20T04:32:39;2.70;;;2.20;;
19006;SDS011;9636;47.382;8.480;2023-04-20T04:35:06;2.43;;;2.13;;
19006;SDS011;9636;47.382;8.480;2023-04-20T04:37:35;2.40;;;2.20;;
19006;SDS011;9636;47.382;8.480;2023-04-20T04:40:02;2.30;;;2.13;;
19006;SDS011;9636;47.382;8.480;2023-04-20T04:42:31;2.70;;;2.50;;
19006;SDS011;9636;47.382;8.480;2023-04-20T04:44:58;2.60;;;2.40;;
19006;SDS011;9636;47.382;8.480;2023-04-20T04:47:26;2.53;;;2.33;;
19006;SDS011;9636;47.382;8.480;2023-04-20T04:49:55;2.30;;;2.10;;
19006;SDS011;9636;47.382;8.480;2023-04-20T04:52:24;2.10;;;2.00;;
19006;SDS011;9636;47.382;8.480;2023-04-20T04:54:52;2.50;;;2.30;;
19006;SDS011;9636;47.382;8.480;2023-04-20T04:57:19;2.40;;;2.20;;
19006;SDS011;9636;47.382;8.480;2023-04-20T04:59:45;2.50;;;2.30;;
19006;SDS011;9636;47.382;8.480;2023-04-20T05:02:12;2.17;;;1.90;;
19006;SDS011;9636;47.382;8.480;2023-04-20T05:04:39;2.23;;;2.10;;
19006;SDS011;9636;47.382;8.480;2023-04-20T05:07:07;2.00;;;1.90;;
19006;SDS011;9636;47.382;8.480;2023-04-20T05:09:35;2.30;;;2.10;;
19006;SDS011;9636;47.382;8.480;2023-04-20T05:12:02;2.60;;;2.40;;
19006;SDS011;9636;47.382;8.480;2023-04-20T05:14:29;2.47;;;2.27;;
19006;SDS011;9636;47.382;8.480;2023-04-20T05:16:56;2.10;;;1.97;;
19006;SDS011;9636;47.382;8.480;2023-04-20T05:19:23;2.20;;;2.00;;
19006;SDS011;9636;47.382;8.480;2023-04-20T05:21:50;2.43;;;2.23;;
19006;SDS011;9636;47.382;8.480;2023-04-20T05:24:18;2.20;;;2.00;;
19006;SDS011;9636;47.382;8.480;2023-04-20T05:26:45;2.50;;;2.30;;
19006;SDS011;9636;47.382;8.480;2023-04-20T05:29:12;2.33;;;2.13;;
19006;SDS011;9636;47.382;8.480;2023-04-20T05:31:41;2.40;;;2.20;;
19006;SDS011;9636;47.382;8.480;2023-04-20T05:34:07;2.30;;;2.10;;
19006;SDS011;9636;47.382;8.480;2023-04-20T05:36:34;2.40;;;2.20;;
19006;SDS011;9636;47.382;8.480;2023-04-20T05:39:02;1.97;;;1.87;;
19006;SDS011;9636;47.382;8.480;2023-04-20T05:41:31;2.10;;;2.00;;
19006;SDS011;9636;47.382;8.480;2023-04-20T05:43:58;2.60;;;1.93;;
19006;SDS011;9636;47.382;8.480;2023-04-20T05:46:24;2.23;;;2.03;;
19006;SDS011;9636;47.382;8.480;2023-04-20T05:48:53;3.13;;;2.30;;
19006;SDS011;9636;47.382;8.480;2023-04-20T05:51:20;2.67;;;2.27;;
19006;SDS011;9636;47.382;8.480;2023-04-20T05:53:47;2.30;;;2.10;;
19006;SDS011;9636;47.382;8.480;2023-04-20T05:56:13;2.40;;;2.20;;
19006;SDS011;9636;47.382;8.480;2023-04-20T05:58:43;2.40;;;2.20;;
19006;SDS011;9636;47.382;8.480;2023-04-20T06:01:10;1.90;;;1.80;;
19006;SDS011;9636;47.382;8.480;2023-04-20T06:03:37;2.27;;;2.10;;
19006;SDS011;9636;47.382;8.480;2023-04-20T06:06:04;2.80;;;1.90;;
19006;SDS011;9636;47.382;8.480;2023-04-20T06:08:31;2.20;;;2.00;;
19006;SDS011;9636;47.382;8.480;2023-04-20T06:10:58;2.40;;;2.20;;
19006;SDS011;9636;47.382;8.480;2023-04-20T06:13:25;2.40;;;2.20;;
19006;SDS011;9636;47.382;8.480;2023-04-20T06:15:53;2.40;;;2.20;;
19006;SDS011;9636;47.382;8.480;2023-04-20T06:18:20;2.30;;;2.10;;
19006;SDS011;9636;47.382;8.480;2023-04-20T06:20:47;1.93;;;1.83;;
19006;SDS011;9636;47.382;8.480;2023-04-20T06:23:14;2.20;;;2.10;;
19006;SDS011;9636;47.382;8.480;2023-04-20T06:25:41;2.10;;;2.00;;
19006;SDS011;9636;47.382;8.480;2023-04-20T06:28:08;2.30;;;2.10;;
19006;SDS011;9636;47.382;8.480;2023-04-20T06:30:34;2.00;;;1.90;;
19006;SDS011;9636;47.382;8.480;2023-04-20T06:33:03;2.00;;;1.90;;
19006;SDS011;9636;47.382;8.480;2023-04-20T06:35:30;2.00;;;1.90;;
19006;SDS011;9636;47.382;8.480;2023-04-20T06:37:56;1.97;;;1.87;;
19006;SDS011;9636;47.382;8.480;2023-04-20T06:40:26;2.40;;;2.20;;
19006;SDS011;9636;47.382;8.480;2023-04-20T06:42:53;2.33;;;2.13;;
19006;SDS011;9636;47.382;8.480;2023-04-20T06:45:20;1.93;;;1.83;;
19006;SDS011;9636;47.382;8.480;2023-04-20T06:47:47;2.00;;;1.90;;
19006;SDS011;9636;47.382;8.480;2023-04-20T06:50:15;1.97;;;1.87;;
19006;SDS011;9636;47.382;8.480;2023-04-20T06:52:42;2.30;;;2.10;;
19006;SDS011;9636;47.382;8.480;2023-04-20T06:55:09;2.17;;;1.97;;
19006;SDS011;9636;47.382;8.480;2023-04-20T06:57:37;2.03;;;1.87;;
19006;SDS011;9636;47.382;8.480;2023-04-20T07:00:05;1.97;;;1.87;;
19006;SDS011;9636;47.382;8.480;2023-04-20T07:02:40;2.10;;;2.00;;
19006;SDS011;9636;47.382;8.480;2023-04-20T07:05:07;1.87;;;1.77;;
19006;SDS011;9636;47.382;8.480;2023-04-20T07:07:36;2.03;;;1.83;;
19006;SDS011;9636;47.382;8.480;2023-04-20T07:10:03;1.97;;;1.87;;
19006;SDS011;9636;47.382;8.480;2023-04-20T07:12:30;2.20;;;2.00;;
19006;SDS011;9636;47.382;8.480;2023-04-20T07:14:59;1.90;;;1.80;;
19006;SDS011;9636;47.382;8.480;2023-04-20T07:17:26;1.97;;;1.87;;
19006;SDS011;9636;47.382;8.480;2023-04-20T07:19:53;2.00;;;1.90;;
19006;SDS011;9636;47.382;8.480;2023-04-20T07:22:20;1.90;;;1.80;;
19006;SDS011;9636;47.382;8.480;2023-04-20T07:24:48;1.90;;;1.80;;
19006;SDS011;9636;47.382;8.480;2023-04-20T07:27:15;2.23;;;2.03;;
19006;SDS011;9636;47.382;8.480;2023-04-20T07:29:42;2.10;;;2.00;;
19006;SDS011;9636;47.382;8.480;2023-04-20T07:32:09;2.30;;;2.10;;
19006;SDS011;9636;47.382;8.480;2023-04-20T07:34:36;1.90;;;1.80;;
19006;SDS011;9636;47.382;8.480;2023-04-20T07:37:03;2.20;;;2.00;;
19006;SDS011;9636;47.382;8.480;2023-04-20T07:39:30;1.90;;;1.80;;
19006;SDS011;9636;47.382;8.480;2023-04-20T07:41:58;1.90;;;1.80;;
19006;SDS011;9636;47.382;8.480;2023-04-20T07:44:24;2.07;;;1.97;;
19006;SDS011;9636;47.382;8.480;2023-04-20T07:46:51;2.00;;;1.90;;
19006;SDS011;9636;47.382;8.480;2023-04-20T07:49:19;2.17;;;1.97;;
19006;SDS011;9636;47.382;8.480;2023-04-20T07:51:46;2.80;;;1.90;;
19006;SDS011;9636;47.382;8.480;2023-04-20T07:54:13;1.70;;;1.60;;
19006;SDS011;9636;47.382;8.480;2023-04-20T07:56:39;1.60;;;1.50;;
19006;SDS011;9636;47.382;8.480;2023-04-20T07:59:08;2.10;;;1.80;;
19006;SDS011;9636;47.382;8.480;2023-04-20T08:01:35;2.10;;;1.90;;
19006;SDS011;9636;47.382;8.480;2023-04-20T08:04:02;1.90;;;1.80;;
19006;SDS011;9636;47.382;8.480;2023-04-20T08:06:29;2.00;;;1.90;;
19006;SDS011;9636;47.382;8.480;2023-04-20T08:08:55;1.70;;;1.60;;
19006;SDS011;9636;47.382;8.480;2023-04-20T08:11:22;2.10;;;2.00;;
19006;SDS011;9636;47.382;8.480;2023-04-20T08:13:50;1.90;;;1.80;;
19006;SDS011;9636;47.382;8.480;2023-04-20T08:16:18;1.77;;;1.67;;
19006;SDS011;9636;47.382;8.480;2023-04-20T08:18:45;1.93;;;1.83;;
19006;SDS011;9636;47.382;8.480;2023-04-20T08:21:12;1.60;;;1.50;;
19006;SDS011;9636;47.382;8.480;2023-04-20T08:23:39;1.63;;;1.53;;
19006;SDS011;9636;47.382;8.480;2023-04-20T08:26:06;1.90;;;1.80;;
19006;SDS011;9636;47.382;8.480;2023-04-20T08:28:33;1.80;;;1.70;;
19006;SDS011;9636;47.382;8.480;2023-04-20T08:30:59;1.70;;;1.60;;
19006;SDS011;9636;47.382;8.480;2023-04-20T08:33:28;2.13;;;1.93;;
19006;SDS011;9636;47.382;8.480;2023-04-20T08:35:55;2.00;;;1.90;;
19006;SDS011;9636;47.382;8.480;2023-04-20T08:38:21;1.70;;;1.60;;
19006;SDS011;9636;47.382;8.480;2023-04-20T08:40:49;2.43;;;1.73;;
19006;SDS011;9636;47.382;8.480;2023-04-20T08:43:16;2.30;;;2.10;;
19006;SDS011;9636;47.382;8.480;2023-04-20T08:45:42;1.63;;;1.53;;
19006;SDS011;9636;47.382;8.480;2023-04-20T08:48:13;1.90;;;1.80;;
19006;SDS011;9636;47.382;8.480;2023-04-20T08:50:46;1.73;;;1.63;;
19006;SDS011;9636;47.382;8.480;2023-04-20T08:53:13;1.73;;;1.63;;
19006;SDS011;9636;47.382;8.480;2023-04-20T08:55:40;1.90;;;1.80;;
19006;SDS011;9636;47.382;8.480;2023-04-20T08:58:07;1.70;;;1.60;;
19006;SDS011;9636;47.382;8.480;2023-04-20T09:00:34;1.80;;;1.70;;
19006;SDS011;9636;47.382;8.480;2023-04-20T09:03:00;1.70;;;1.60;;
19006;SDS011;9636;47.382;8.480;2023-04-20T09:05:27;1.70;;;1.60;;
19006;SDS011;9636;47.382;8.480;2023-04-20T09:07:57;1.90;;;1.80;;
19006;SDS011;9636;47.382;8.480;2023-04-20T09:10:26;1.63;;;1.47;;
19006;SDS011;9636;47.382;8.480;2023-04-20T09:13:05;1.70;;;1.60;;
19006;SDS011;9636;47.382;8.480;2023-04-20T09:15:32;1.70;;;1.60;;
19006;SDS011;9636;47.382;8.480;2023-04-20T09:18:09;2.30;;;2.10;;
19006;SDS011;9636;47.382;8.480;2023-04-20T09:20:38;1.87;;;1.77;;
19006;SDS011;9636;47.382;8.480;2023-04-20T09:23:13;1.80;;;1.70;;
19006;SDS011;9636;47.382;8.480;2023-04-20T09:25:40;2.00;;;1.90;;
19006;SDS011;9636;47.382;8.480;2023-04-20T09:28:10;2.00;;;1.87;;
19006;SDS011;9636;47.382;8.480;2023-04-20T09:30:38;1.80;;;1.70;;
19006;SDS011;9636;47.382;8.480;2023-04-20T09:33:06;1.93;;;1.83;;
19006;SDS011;9636;47.382;8.480;2023-04-20T09:35:34;1.70;;;1.60;;
19006;SDS011;9636;47.382;8.480;2023-04-20T09:38:02;1.70;;;1.60;;
19006;SDS011;9636;47.382;8.480;2023-04-20T09:40:30;2.03;;;1.67;;
19006;SDS011;9636;47.382;8.480;2023-04-20T09:43:00;1.90;;;1.70;;
19006;SDS011;9636;47.382;8.480;2023-04-20T09:45:30;1.70;;;1.60;;
19006;SDS011;9636;47.382;8.480;2023-04-20T09:47:57;1.60;;;1.50;;
19006;SDS011;9636;47.382;8.480;2023-04-20T09:50:25;1.87;;;1.77;;
19006;SDS011;9636;47.382;8.480;2023-04-20T09:52:52;2.00;;;1.90;;
19006;SDS011;9636;47.382;8.480;2023-04-20T09:55:19;1.70;;;1.60;;
19006;SDS011;9636;47.382;8.480;2023-04-20T09:57:48;1.73;;;1.63;;
19006;SDS011;9636;47.382;8.480;2023-04-20T10:00:15;2.03;;;1.90;;
19006;SDS011;9636;47.382;8.480;2023-04-20T10:02:44;1.70;;;1.60;;
19006;SDS011;9636;47.382;8.480;2023-04-20T10:05:12;1.83;;;1.73;;
19006;SDS011;9636;47.382;8.480;2023-04-20T10:07:40;1.80;;;1.70;;
19006;SDS011;9636;47.382;8.480;2023-04-20T10:10:08;1.77;;;1.67;;
19006;SDS011;9636;47.382;8.480;2023-04-20T10:12:45;1.70;;;1.60;;
19006;SDS011;9636;47.382;8.480;2023-04-20T10:15:14;1.60;;;1.50;;
19006;SDS011;9636;47.382;8.480;2023-04-20T10:17:41;1.70;;;1.60;;
19006;SDS011;9636;47.382;8.480;2023-04-20T10:20:18;1.70;;;1.60;;
19006;SDS011;9636;47.382;8.480;2023-04-20T10:22:47;1.77;;;1.67;;
19006;SDS011;9636;47.382;8.480;2023-04-20T10:25:15;1.50;;;1.40;;
19006;SDS011;9636;47.382;8.480;2023-04-20T10:27:53;1.77;;;1.67;;
19006;SDS011;9636;47.382;8.480;2023-04-20T10:30:23;1.60;;;1.50;;
19006;SDS011;9636;47.382;8.480;2023-04-20T10:33:01;1.77;;;1.67;;
19006;SDS011;9636;47.382;8.480;2023-04-20T10:35:39;1.80;;;1.70;;
19006;SDS011;9636;47.382;8.480;2023-04-20T10:38:07;1.80;;;1.70;;
19006;SDS011;9636;47.382;8.480;2023-04-20T10:40:35;1.87;;;1.77;;
19006;SDS011;9636;47.382;8.480;2023-04-20T10:43:02;1.87;;;1.77;;
19006;SDS011;9636;47.382;8.480;2023-04-20T10:45:34;1.93;;;1.83;;
19006;SDS011;9636;47.382;8.480;2023-04-20T10:48:06;1.60;;;1.50;;
19006;SDS011;9636;47.382;8.480;2023-04-20T10:50:33;1.57;;;1.47;;
19006;SDS011;9636;47.382;8.480;2023-04-20T10:53:01;1.73;;;1.63;;
19006;SDS011;9636;47.382;8.480;2023-04-20T10:55:28;1.60;;;1.50;;
19006;SDS011;9636;47.382;8.480;2023-04-20T10:57:56;1.80;;;1.70;;
19006;SDS011;9636;47.382;8.480;2023-04-20T11:00:24;1.57;;;1.47;;
19006;SDS011;9636;47.382;8.480;2023-04-20T11:02:54;1.60;;;1.50;;
19006;SDS011;9636;47.382;8.480;2023-04-20T11:05:22;1.87;;;1.77;;
19006;SDS011;9636;47.382;8.480;2023-04-20T11:07:51;2.00;;;1.90;;
19006;SDS011;9636;47.382;8.480;2023-04-20T11:10:18;1.73;;;1.63;;
19006;SDS011;9636;47.382;8.480;2023-04-20T11:12:46;1.60;;;1.50;;
19006;SDS011;9636;47.382;8.480;2023-04-20T11:15:12;1.60;;;1.50;;
19006;SDS011;9636;47.382;8.480;2023-04-20T11:17:40;1.70;;;1.60;;
19006;SDS011;9636;47.382;8.480;2023-04-20T11:20:09;1.77;;;1.67;;
19006;SDS011;9636;47.382;8.480;2023-04-20T11:22:39;1.60;;;1.50;;
19006;SDS011;9636;47.382;8.480;2023-04-20T11:25:07;1.50;;;1.40;;
19006;SDS011;9636;47.382;8.480;2023-04-20T11:27:35;1.73;;;1.63;;
19006;SDS011;9636;47.382;8.480;2023-04-20T11:30:03;1.53;;;1.43;;
19006;SDS011;9636;47.382;8.480;2023-04-20T11:32:32;1.87;;;1.77;;
19006;SDS011;9636;47.382;8.480;2023-04-20T11:35:00;1.80;;;1.70;;
19006;SDS011;9636;47.382;8.480;2023-04-20T11:37:30;1.67;;;1.57;;
19006;SDS011;9636;47.382;8.480;2023-04-20T11:39:58;1.63;;;1.53;;
19006;SDS011;9636;47.382;8.480;2023-04-20T11:42:24;1.70;;;1.60;;
19006;SDS011;9636;47.382;8.480;2023-04-20T11:44:52;1.60;;;1.50;;
19006;SDS011;9636;47.382;8.480;2023-04-20T11:47:18;1.73;;;1.63;;
19006;SDS011;9636;47.382;8.480;2023-04-20T11:49:45;2.83;;;2.40;;
19006;SDS011;9636;47.382;8.480;2023-04-20T11:52:12;2.10;;;2.00;;
19006;SDS011;9636;47.382;8.480;2023-04-20T11:54:40;2.30;;;2.00;;
19006;SDS011;9636;47.382;8.480;2023-04-20T11:57:07;2.53;;;2.33;;
19006;SDS011;9636;47.382;8.480;2023-04-20T11:59:34;2.40;;;2.20;;
19006;SDS011;9636;47.382;8.480;2023-04-20T12:02:00;5.17;;;2.50;;
19006;SDS011;9636;47.382;8.480;2023-04-20T12:04:28;2.43;;;2.23;;
19006;SDS011;9636;47.382;8.480;2023-04-20T12:06:55;2.40;;;2.20;;
19006;SDS011;9636;47.382;8.480;2023-04-20T12:09:23;2.70;;;2.50;;
19006;SDS011;9636;47.382;8.480;2023-04-20T12:11:51;2.70;;;2.50;;
19006;SDS011;9636;47.382;8.480;2023-04-20T12:14:18;3.20;;;2.90;;
19006;SDS011;9636;47.382;8.480;2023-04-20T12:16:45;2.30;;;2.10;;
19006;SDS011;9636;47.382;8.480;2023-04-20T12:19:12;2.33;;;2.20;;
19006;SDS011;9636;47.382;8.480;2023-04-20T12:21:39;2.73;;;2.53;;
19006;SDS011;9636;47.382;8.480;2023-04-20T12:24:05;2.60;;;2.40;;
19006;SDS011;9636;47.382;8.480;2023-04-20T12:26:32;2.73;;;2.20;;
19006;SDS011;9636;47.382;8.480;2023-04-20T12:29:01;2.60;;;2.40;;
19006;SDS011;9636;47.382;8.480;2023-04-20T12:31:28;2.43;;;2.23;;
19006;SDS011;9636;47.382;8.480;2023-04-20T12:33:55;3.20;;;2.20;;
19006;SDS011;9636;47.382;8.480;2023-04-20T12:36:21;3.33;;;2.40;;
19006;SDS011;9636;47.382;8.480;2023-04-20T12:38:49;2.60;;;2.40;;
19006;SDS011;9636;47.382;8.480;2023-04-20T12:41:16;2.30;;;2.10;;
19006;SDS011;9636;47.382;8.480;2023-04-20T12:43:43;2.53;;;2.20;;
19006;SDS011;9636;47.382;8.480;2023-04-20T12:46:11;2.83;;;2.60;;
19006;SDS011;9636;47.382;8.480;2023-04-20T12:48:38;2.70;;;2.50;;
19006;SDS011;9636;47.382;8.480;2023-04-20T12:51:05;2.70;;;2.50;;
19006;SDS011;9636;47.382;8.480;2023-04-20T12:53:32;2.60;;;2.40;;
19006;SDS011;9636;47.382;8.480;2023-04-20T12:55:59;2.67;;;2.47;;
19006;SDS011;9636;47.382;8.480;2023-04-20T12:58:25;2.67;;;2.47;;
19006;SDS011;9636;47.382;8.480;2023-04-20T13:00:52;2.37;;;2.20;;
19006;SDS011;9636;47.382;8.480;2023-04-20T13:03:20;2.40;;;2.20;;
19006;SDS011;9636;47.382;8.480;2023-04-20T13:05:47;2.53;;;2.33;;
19006;SDS011;9636;47.382;8.480;2023-04-20T13:08:14;2.57;;;2.37;;
19006;SDS011;9636;47.382;8.480;2023-04-20T13:10:41;4.03;;;2.80;;
19006;SDS011;9636;47.382;8.480;2023-04-20T13:13:09;2.30;;;2.10;;
19006;SDS011;9636;47.382;8.480;2023-04-20T13:15:36;2.97;;;2.30;;
19006;SDS011;9636;47.382;8.480;2023-04-20T13:18:03;2.30;;;2.10;;
19006;SDS011;9636;47.382;8.480;2023-04-20T13:20:31;2.10;;;2.00;;
19006;SDS011;9636;47.382;8.480;2023-04-20T13:22:59;2.20;;;2.10;;
19006;SDS011;9636;47.382;8.480;2023-04-20T13:25:27;2.47;;;2.30;;
19006;SDS011;9636;47.382;8.480;2023-04-20T13:27:56;2.67;;;2.47;;
19006;SDS011;9636;47.382;8.480;2023-04-20T13:30:23;2.50;;;2.30;;
19006;SDS011;9636;47.382;8.480;2023-04-20T13:32:50;2.47;;;2.30;;
19006;SDS011;9636;47.382;8.480;2023-04-20T13:35:17;3.30;;;2.43;;
19006;SDS011;9636;47.382;8.480;2023-04-20T13:37:45;2.83;;;2.43;;
19006;SDS011;9636;47.382;8.480;2023-04-20T13:40:12;2.53;;;2.33;;
19006;SDS011;9636;47.382;8.480;2023-04-20T13:42:39;3.40;;;2.20;;
19006;SDS011;9636;47.382;8.480;2023-04-20T13:45:06;2.50;;;2.30;;
19006;SDS011;9636;47.382;8.480;2023-04-20T13:47:35;2.67;;;2.47;;
19006;SDS011;9636;47.382;8.480;2023-04-20T13:50:02;2.40;;;2.20;;
19006;SDS011;9636;47.382;8.480;2023-04-20T13:52:30;2.50;;;2.30;;
19006;SDS011;9636;47.382;8.480;2023-04-20T13:54:58;2.47;;;2.20;;
19006;SDS011;9636;47.382;8.480;2023-04-20T13:57:24;2.60;;;2.40;;
19006;SDS011;9636;47.382;8.480;2023-04-20T13:59:51;2.30;;;2.10;;
19006;SDS011;9636;47.382;8.480;2023-04-20T14:02:19;2.70;;;2.50;;
19006;SDS011;9636;47.382;8.480;2023-04-20T14:04:46;2.50;;;2.30;;
19006;SDS011;9636;47.382;8.480;2023-04-20T14:07:13;2.30;;;2.20;;
19006;SDS011;9636;47.382;8.480;2023-04-20T14:09:39;2.10;;;2.00;;
19006;SDS011;9636;47.382;8.480;2023-04-20T14:12:09;2.53;;;2.33;;
19006;SDS011;9636;47.382;8.480;2023-04-20T14:14:36;2.00;;;1.90;;
19006;SDS011;9636;47.382;8.480;2023-04-20T14:17:03;2.10;;;2.00;;
19006;SDS011;9636;47.382;8.480;2023-04-20T14:19:30;2.30;;;2.10;;
19006;SDS011;9636;47.382;8.480;2023-04-20T14:21:57;2.10;;;2.00;;
19006;SDS011;9636;47.382;8.480;2023-04-20T14:24:24;2.30;;;2.10;;
19006;SDS011;9636;47.382;8.480;2023-04-20T14:26:51;2.40;;;2.20;;
19006;SDS011;9636;47.382;8.480;2023-04-20T14:29:19;2.50;;;2.30;;
19006;SDS011;9636;47.382;8.480;2023-04-20T14:31:46;2.00;;;1.90;;
19006;SDS011;9636;47.382;8.480;2023-04-20T14:34:13;2.40;;;2.20;;
19006;SDS011;9636;47.382;8.480;2023-04-20T14:36:39;2.07;;;1.97;;
19006;SDS011;9636;47.382;8.480;2023-04-20T14:39:06;2.20;;;2.00;;
19006;SDS011;9636;47.382;8.480;2023-04-20T14:41:33;2.83;;;2.40;;
19006;SDS011;9636;47.382;8.480;2023-04-20T14:44:00;2.37;;;2.10;;
19006;SDS011;9636;47.382;8.480;2023-04-20T14:46:29;2.30;;;2.10;;
19006;SDS011;9636;47.382;8.480;2023-04-20T14:48:56;2.50;;;2.30;;
19006;SDS011;9636;47.382;8.480;2023-04-20T14:51:22;2.30;;;2.10;;
19006;SDS011;9636;47.382;8.480;2023-04-20T14:53:49;2.17;;;2.03;;
19006;SDS011;9636;47.382;8.480;2023-04-20T14:56:16;2.37;;;2.23;;
19006;SDS011;9636;47.382;8.480;2023-04-20T14:58:43;2.63;;;2.43;;
19006;SDS011;9636;47.382;8.480;2023-04-20T15:01:11;2.00;;;1.90;;
19006;SDS011;9636;47.382;8.480;2023-04-20T15:03:40;2.23;;;2.13;;